Ana Sayfa
METAR-TAF:

METAR-TAF

Havaalanları :

Brookhaven Airport

Shirley, New York, Amerika Birleşik Devletleri

Enlem: 40-49-18N, Boylam: 072-52-08W, yükseklik: 25 m

Güncel hava durumu gözlemi

Rapor saat 01:56 UTC de 1 saat ve 25 dakika önce yapıldı.
Rüzgar kuzeydan 18 kt ve 28 kt'a kadar ani rüzgarlar
Sıcaklık 10°C
Nem 57%
Basınç 1002 hPa
Görüş mesafesi: 16.1 km
4200 ft yükseklikte çok bulutlu
hafif yağmur

METAR: KHWV 030156Z AUTO 35018G28KT 10SM -RA OVC042 10/02 A2960 RMK AO2 PK WND 35036/0113 RAE02B30 SLP023 P0000 T01000017 TSNO

Saat: 23:21 (03:21 UTC)


TAF: eksik

4.000'den fazla havaalanı için hava durumu gözlemleri ve tahminleri (METAR ve TAF raporları).

Kullanılabilir istasyonlar harita üzerinde sarı ve kırmızı noktalarla gösterilir.

İstasyonun adını görmek için fareyi noktanın üzerinde gezdirin.

Sonrasında hava gözlem ve tahminlerini görmek için tıklayın.

Haritayı değiştirmek için: yaklaştırmak için siyah artı işaretli yeşil düğmeye ve uzaklaştırmak için de eksi işaretli düğmeye hızla tıklayın; bitişik haritalar için yeşil okları kullanın.


METAR-TAF: